Time;durP1;ratioP1;P1;durP2;ratioP2;P2;SDS_P1;SDS_P2;PMS_P1;PMS_P2;Temp;Humidity;BMP_temperature;BMP_pressure;BME280_temperature;BME280_humidity;BME280_pressure;Samples;Min_cycle;Max_cycle;Signal;HPM_P1;HPM_P2
2023/04/20 00:00:29;;;;;;;4.75;3.42;;;;;;;;;;5019466;28;20079;-79
2023/04/20 00:02:55;;;;;;;7.45;3.67;;;;;;;;;;5017880;28;20025;-79
2023/04/20 00:05:31;;;;;;;7.25;3.60;;;;;;;;;;5023316;28;20033;-78
2023/04/20 00:07:57;;;;;;;6.72;3.45;;;;;;;;;;5039276;28;20029;-79
2023/04/20 00:10:24;;;;;;;5.82;2.92;;;;;;;;;;5037316;28;20064;-78
2023/04/20 00:12:50;;;;;;;5.20;2.90;;;;;;;;;;5030283;28;20071;-79
2023/04/20 00:15:16;;;;;;;5.22;3.15;;;;;;;;;;5038530;28;20049;-79
2023/04/20 00:17:43;;;;;;;4.68;3.08;;;;;;;;;;5039140;28;20098;-79
2023/04/20 00:20:09;;;;;;;5.53;3.38;;;;;;;;;;5039031;28;20021;-79
2023/04/20 00:22:35;;;;;;;5.60;3.13;;;;;;;;;;5037369;28;20396;-79
2023/04/20 00:25:02;;;;;;;5.63;3.00;;;;;;;;;;5039746;28;20025;-78
2023/04/20 00:30:11;;;;;;;6.07;2.20;;;;;;;;;;5172775;22;19952;-78
2023/04/20 00:32:37;;;;;;;6.82;2.85;;;;;;;;;;5017716;28;20501;-79
2023/04/20 00:35:03;;;;;;;6.10;2.78;;;;;;;;;;5018542;28;20026;-78
2023/04/20 00:37:29;;;;;;;3.08;2.10;;;;;;;;;;5017775;28;20058;-79
2023/04/20 00:39:57;;;;;;;4.63;2.90;;;;;;;;;;5018715;28;20391;-79
2023/04/20 00:42:23;;;;;;;3.22;2.42;;;;;;;;;;5022394;28;20025;-79
2023/04/20 00:44:49;;;;;;;3.25;1.85;;;;;;;;;;5023658;28;20026;-78
2023/04/20 00:47:32;;;;;;;5.93;2.40;;;;;;;;;;5011895;28;20037;-79
2023/04/20 00:49:58;;;;;;;4.80;2.88;;;;;;;;;;5003440;28;20365;-79
2023/04/20 00:52:24;;;;;;;7.55;2.33;;;;;;;;;;4986023;28;20473;-79
2023/04/20 00:54:50;;;;;;;5.70;1.90;;;;;;;;;;5021843;28;20037;-79
2023/04/20 00:57:18;;;;;;;3.30;1.85;;;;;;;;;;5004076;28;20030;-79
2023/04/20 00:59:44;;;;;;;5.20;2.13;;;;;;;;;;5021615;28;20066;-79
2023/04/20 01:02:10;;;;;;;3.70;2.33;;;;;;;;;;5022544;28;20094;-79
2023/04/20 01:04:36;;;;;;;4.93;2.35;;;;;;;;;;5021724;28;20026;-79
2023/04/20 01:07:02;;;;;;;2.83;1.60;;;;;;;;;;5008011;28;20575;-79
2023/04/20 01:09:28;;;;;;;3.25;1.83;;;;;;;;;;5017514;28;20046;-79
2023/04/20 01:11:54;;;;;;;7.85;2.83;;;;;;;;;;5008975;28;20023;-79
2023/04/20 01:14:20;;;;;;;3.05;2.10;;;;;;;;;;5001284;28;20034;-79
2023/04/20 01:16:46;;;;;;;2.78;1.85;;;;;;;;;;4984095;28;20172;-79
2023/04/20 01:19:12;;;;;;;4.18;2.13;;;;;;;;;;5001290;28;20065;-79
2023/04/20 01:21:38;;;;;;;2.80;1.92;;;;;;;;;;5001299;28;20455;-79
2023/04/20 01:24:05;;;;;;;4.65;1.77;;;;;;;;;;5014479;28;20026;-79
2023/04/20 01:26:31;;;;;;;4.28;1.75;;;;;;;;;;5003673;28;20030;-79
2023/04/20 01:28:57;;;;;;;3.13;1.40;;;;;;;;;;4982681;28;20550;-79
2023/04/20 01:31:23;;;;;;;4.20;1.77;;;;;;;;;;4998475;28;20399;-79
2023/04/20 01:33:49;;;;;;;5.47;2.10;;;;;;;;;;5020137;28;20026;-79
2023/04/20 01:36:16;;;;;;;4.05;2.00;;;;;;;;;;5019648;28;20030;-79
2023/04/20 01:38:42;;;;;;;6.88;2.05;;;;;;;;;;5001597;28;20033;-79
2023/04/20 01:41:08;;;;;;;2.80;1.50;;;;;;;;;;5006529;28;20022;-79
2023/04/20 01:43:35;;;;;;;3.10;1.25;;;;;;;;;;4982701;28;20380;-79
2023/04/20 01:46:01;;;;;;;4.43;1.67;;;;;;;;;;5004485;28;20384;-79
2023/04/20 01:48:27;;;;;;;7.13;1.83;;;;;;;;;;5003864;28;20034;-79
2023/04/20 01:50:53;;;;;;;4.47;2.00;;;;;;;;;;4999713;28;20369;-79
2023/04/20 01:53:19;;;;;;;2.25;1.30;;;;;;;;;;5005361;28;20021;-79
2023/04/20 01:55:45;;;;;;;0.73;0.70;;;;;;;;;;5001067;28;20036;-79
2023/04/20 01:58:11;;;;;;;3.45;1.85;;;;;;;;;;5018947;28;20033;-79
2023/04/20 02:00:37;;;;;;;4.10;1.92;;;;;;;;;;5019173;28;20022;-79
2023/04/20 02:03:03;;;;;;;3.08;1.95;;;;;;;;;;5018709;28;20097;-79
2023/04/20 02:05:29;;;;;;;5.95;1.70;;;;;;;;;;5011450;28;20034;-79
2023/04/20 02:07:55;;;;;;;4.90;1.80;;;;;;;;;;5006499;28;20096;-79
2023/04/20 02:10:34;;;;;;;1.42;1.13;;;;;;;;;;4998772;28;20096;-79
2023/04/20 02:13:00;;;;;;;5.10;2.03;;;;;;;;;;5001271;28;20026;-79
2023/04/20 02:15:26;;;;;;;2.47;1.65;;;;;;;;;;5018481;28;20036;-79
2023/04/20 02:17:52;;;;;;;4.47;1.38;;;;;;;;;;5009978;28;20042;-79
2023/04/20 02:20:18;;;;;;;3.63;1.52;;;;;;;;;;5000852;28;20030;-79
2023/04/20 02:22:45;;;;;;;1.42;1.00;;;;;;;;;;5017092;28;20691;-80
2023/04/20 02:25:11;;;;;;;4.25;1.40;;;;;;;;;;5018051;28;20030;-79
2023/04/20 02:27:37;;;;;;;3.92;1.38;;;;;;;;;;5002962;28;20412;-79
2023/04/20 02:30:04;;;;;;;1.85;1.15;;;;;;;;;;5014422;28;20060;-79
2023/04/20 02:32:30;;;;;;;1.98;1.40;;;;;;;;;;4998689;28;20041;-79
2023/04/20 02:34:56;;;;;;;2.45;1.20;;;;;;;;;;5013855;28;20084;-79
2023/04/20 02:37:22;;;;;;;2.55;1.52;;;;;;;;;;4985330;28;20062;-79
2023/04/20 02:39:48;;;;;;;2.70;1.38;;;;;;;;;;5008936;28;20424;-79
2023/04/20 02:42:14;;;;;;;2.17;1.30;;;;;;;;;;4997722;28;20027;-79
2023/04/20 02:44:40;;;;;;;2.95;1.10;;;;;;;;;;4998152;28;20027;-79
2023/04/20 02:47:06;;;;;;;4.13;1.63;;;;;;;;;;4999838;28;20037;-79
2023/04/20 02:49:32;;;;;;;4.57;1.50;;;;;;;;;;5016615;28;20494;-79
2023/04/20 02:52:00;;;;;;;2.90;1.38;;;;;;;;;;5017373;28;20026;-79
2023/04/20 02:54:28;;;;;;;7.97;1.70;;;;;;;;;;4998756;28;20034;-79
2023/04/20 02:56:55;;;;;;;1.48;1.13;;;;;;;;;;5000234;28;20061;-79
2023/04/20 02:59:21;;;;;;;1.90;1.38;;;;;;;;;;5009056;28;20038;-79
2023/04/20 03:01:47;;;;;;;2.38;1.00;;;;;;;;;;5002016;28;20080;-79
2023/04/20 03:04:13;;;;;;;4.25;0.90;;;;;;;;;;4997491;28;20034;-79
2023/04/20 03:06:39;;;;;;;1.77;1.23;;;;;;;;;;4997197;28;20029;-80
2023/04/20 03:09:06;;;;;;;6.57;1.23;;;;;;;;;;4980476;28;20033;-80
2023/04/20 03:11:32;;;;;;;3.50;1.35;;;;;;;;;;4998570;28;20022;-80
2023/04/20 03:13:58;;;;;;;4.30;1.38;;;;;;;;;;5008383;28;20628;-80
2023/04/20 03:16:24;;;;;;;2.50;1.58;;;;;;;;;;5016803;28;20042;-80
2023/04/20 03:18:50;;;;;;;5.80;1.52;;;;;;;;;;5016990;28;20518;-79
2023/04/20 03:21:16;;;;;;;3.80;1.13;;;;;;;;;;5017653;28;20022;-79
2023/04/20 03:23:42;;;;;;;3.05;1.05;;;;;;;;;;5008413;28;20025;-80
2023/04/20 03:26:08;;;;;;;4.18;1.77;;;;;;;;;;4998261;28;20029;-81
2023/04/20 03:28:34;;;;;;;3.22;1.60;;;;;;;;;;5016510;28;20041;-80
2023/04/20 03:31:00;;;;;;;3.10;1.17;;;;;;;;;;5015982;28;20136;-80
2023/04/20 03:33:27;;;;;;;3.00;1.13;;;;;;;;;;4989706;28;20031;-79
2023/04/20 03:35:57;;;;;;;3.50;1.55;;;;;;;;;;5013968;28;20033;-80
2023/04/20 03:38:23;;;;;;;1.63;0.90;;;;;;;;;;5002597;28;20034;-80
2023/04/20 03:40:49;;;;;;;2.13;1.25;;;;;;;;;;4999814;28;20029;-80
2023/04/20 03:43:21;;;;;;;3.33;1.70;;;;;;;;;;5000341;28;20029;-80
2023/04/20 03:45:48;;;;;;;2.80;1.42;;;;;;;;;;5009180;28;20484;-79
2023/04/20 03:48:14;;;;;;;3.88;1.52;;;;;;;;;;4998302;28;20038;-80
2023/04/20 03:50:40;;;;;;;1.92;1.33;;;;;;;;;;5019418;28;20033;-80
2023/04/20 03:53:06;;;;;;;4.07;1.30;;;;;;;;;;5019573;28;20049;-80
2023/04/20 03:55:32;;;;;;;8.13;1.80;;;;;;;;;;5019315;28;20033;-80
2023/04/20 03:57:58;;;;;;;2.08;1.42;;;;;;;;;;5019007;28;20073;-80
2023/04/20 04:00:24;;;;;;;3.92;1.52;;;;;;;;;;5018810;28;20081;-80
2023/04/20 04:02:50;;;;;;;5.03;1.58;;;;;;;;;;5019464;28;20032;-80
2023/04/20 04:05:16;;;;;;;3.30;1.60;;;;;;;;;;5019080;28;20022;-80
2023/04/20 04:07:42;;;;;;;4.55;1.80;;;;;;;;;;5019072;28;20042;-80
2023/04/20 04:10:09;;;;;;;6.60;1.42;;;;;;;;;;5005335;28;20053;-80
2023/04/20 04:12:35;;;;;;;9.20;2.53;;;;;;;;;;4998951;28;20028;-79
2023/04/20 04:15:01;;;;;;;3.45;1.30;;;;;;;;;;5000384;28;20113;-80
2023/04/20 04:17:27;;;;;;;2.33;1.40;;;;;;;;;;4998709;28;20030;-79
2023/04/20 04:19:53;;;;;;;3.97;1.35;;;;;;;;;;4980439;28;20034;-79
2023/04/20 04:22:24;;;;;;;4.15;2.25;;;;;;;;;;4980296;28;20109;-80
2023/04/20 04:24:58;;;;;;;5.63;1.90;;;;;;;;;;4980602;28;20026;-80
2023/04/20 04:27:24;;;;;;;2.10;1.73;;;;;;;;;;4997716;28;20038;-80
2023/04/20 04:29:50;;;;;;;2.08;1.13;;;;;;;;;;4997568;28;20062;-80
2023/04/20 04:32:16;;;;;;;5.88;1.90;;;;;;;;;;4997209;28;20023;-80
2023/04/20 04:34:47;;;;;;;2.28;1.15;;;;;;;;;;4997173;28;20112;-80
2023/04/20 04:37:13;;;;;;;;;;;;;;;;;;4996998;28;20165;-79
2023/04/20 04:39:40;;;;;;;2.45;1.63;;;;;;;;;;4996565;28;19942;-79
2023/04/20 04:42:06;;;;;;;5.10;1.70;;;;;;;;;;4996389;28;20100;-79
2023/04/20 04:44:32;;;;;;;3.67;1.67;;;;;;;;;;4997281;28;20065;-80
2023/04/20 04:46:58;;;;;;;3.72;1.88;;;;;;;;;;5001897;28;20034;-80
2023/04/20 04:49:25;;;;;;;3.80;1.42;;;;;;;;;;4996544;28;20026;-79
2023/04/20 04:51:51;;;;;;;4.75;2.17;;;;;;;;;;5010398;28;20527;-82
2023/04/20 04:54:17;;;;;;;4.03;2.05;;;;;;;;;;5015580;28;20508;-79
2023/04/20 04:56:43;;;;;;;3.70;2.15;;;;;;;;;;5015605;28;20037;-79
2023/04/20 04:59:09;;;;;;;2.88;2.08;;;;;;;;;;5015645;28;20115;-79
2023/04/20 05:01:35;;;;;;;5.32;1.60;;;;;;;;;;5015662;28;20022;-79
2023/04/20 05:04:16;;;;;;;7.85;2.10;;;;;;;;;;5015445;28;20597;-79
2023/04/20 05:06:42;;;;;;;2.60;1.77;;;;;;;;;;5015590;28;20105;-79
2023/04/20 05:09:08;;;;;;;2.45;1.55;;;;;;;;;;5015701;28;20030;-79
2023/04/20 05:11:34;;;;;;;2.72;1.45;;;;;;;;;;4997819;28;20120;-79
2023/04/20 05:14:01;;;;;;;4.10;2.00;;;;;;;;;;5015200;28;20077;-79
2023/04/20 05:16:27;;;;;;;5.57;1.85;;;;;;;;;;5015482;28;20084;-79
2023/04/20 05:18:53;;;;;;;2.53;1.58;;;;;;;;;;5015066;28;20026;-79
2023/04/20 05:21:19;;;;;;;5.55;1.60;;;;;;;;;;5015265;28;20033;-79
2023/04/20 05:23:45;;;;;;;3.67;1.38;;;;;;;;;;5015056;28;20395;-79
2023/04/20 05:26:11;;;;;;;4.72;1.90;;;;;;;;;;5015376;28;20101;-79
2023/04/20 05:28:37;;;;;;;5.15;2.13;;;;;;;;;;5015040;28;20097;-79
2023/04/20 05:31:03;;;;;;;10.85;2.63;;;;;;;;;;5015002;28;20057;-79
2023/04/20 05:33:29;;;;;;;6.30;1.85;;;;;;;;;;4997562;28;20037;-79
2023/04/20 05:35:58;;;;;;;4.47;1.52;;;;;;;;;;5015126;28;20026;-78
2023/04/20 05:38:24;;;;;;;3.45;1.65;;;;;;;;;;5015056;28;20495;-79
2023/04/20 05:40:51;;;;;;;4.18;1.70;;;;;;;;;;5015332;28;20026;-79
2023/04/20 05:43:18;;;;;;;3.38;1.40;;;;;;;;;;4997617;28;20026;-79
2023/04/20 05:45:50;;;;;;;3.28;1.60;;;;;;;;;;5015160;28;20025;-79
2023/04/20 05:48:37;;;;;;;2.20;1.38;;;;;;;;;;5015433;28;20033;-79
2023/04/20 05:51:03;;;;;;;2.92;1.90;;;;;;;;;;5015133;28;20038;-79
2023/04/20 05:53:29;;;;;;;4.45;1.98;;;;;;;;;;4996001;28;20029;-79
2023/04/20 05:55:55;;;;;;;7.10;1.92;;;;;;;;;;4978292;28;20026;-79
2023/04/20 05:58:21;;;;;;;3.28;1.80;;;;;;;;;;4995651;28;20038;-78
2023/04/20 06:00:47;;;;;;;3.22;1.95;;;;;;;;;;5000226;28;20054;-79
2023/04/20 06:03:13;;;;;;;2.38;1.52;;;;;;;;;;5015767;28;20053;-79
2023/04/20 06:05:39;;;;;;;4.60;1.48;;;;;;;;;;4997044;28;20305;-79
2023/04/20 06:08:05;;;;;;;3.03;1.67;;;;;;;;;;5015062;28;20030;-79
2023/04/20 06:10:32;;;;;;;3.33;1.58;;;;;;;;;;5015025;28;20029;-79
2023/04/20 06:12:59;;;;;;;7.15;2.78;;;;;;;;;;5015145;28;20073;-79
2023/04/20 06:15:25;;;;;;;6.43;1.65;;;;;;;;;;5015300;28;20062;-79
2023/04/20 06:17:51;;;;;;;5.82;1.92;;;;;;;;;;5015246;28;20083;-79
2023/04/20 06:20:17;;;;;;;6.82;2.20;;;;;;;;;;5014593;28;20105;-79
2023/04/20 06:22:44;;;;;;;8.57;2.38;;;;;;;;;;5012948;28;20037;-80
2023/04/20 06:25:10;;;;;;;10.60;2.78;;;;;;;;;;4996675;28;20029;-79
2023/04/20 06:27:36;;;;;;;12.27;2.00;;;;;;;;;;5010729;28;20058;-79
2023/04/20 06:30:03;;;;;;;3.45;2.05;;;;;;;;;;5014203;28;20042;-79
2023/04/20 06:32:29;;;;;;;3.25;1.75;;;;;;;;;;5023044;28;20061;-79
2023/04/20 06:34:55;;;;;;;4.63;1.73;;;;;;;;;;5020086;28;20022;-80
2023/04/20 06:37:21;;;;;;;4.10;1.67;;;;;;;;;;5019267;28;20026;-80
2023/04/20 06:39:47;;;;;;;6.63;1.63;;;;;;;;;;5028959;28;20021;-80
2023/04/20 06:42:13;;;;;;;2.67;1.70;;;;;;;;;;5027593;28;20026;-80
2023/04/20 06:44:39;;;;;;;3.13;1.17;;;;;;;;;;5021010;28;20029;-80
2023/04/20 06:47:05;;;;;;;8.27;1.92;;;;;;;;;;4995360;28;20081;-79
2023/04/20 06:49:31;;;;;;;2.38;1.42;;;;;;;;;;4995037;28;20026;-79
2023/04/20 06:51:57;;;;;;;7.93;2.08;;;;;;;;;;5012979;28;20444;-79
2023/04/20 06:54:23;;;;;;;3.55;1.77;;;;;;;;;;5014071;28;20068;-79
2023/04/20 06:56:49;;;;;;;4.03;1.33;;;;;;;;;;5013084;28;20101;-80
2023/04/20 06:59:17;;;;;;;3.13;1.40;;;;;;;;;;4994431;28;20030;-79
2023/04/20 07:01:43;;;;;;;3.75;1.55;;;;;;;;;;4994449;28;20126;-79
2023/04/20 07:04:09;;;;;;;2.67;1.40;;;;;;;;;;5000042;28;20054;-80
2023/04/20 07:06:35;;;;;;;5.30;1.60;;;;;;;;;;5011413;28;20026;-80
2023/04/20 07:09:26;;;;;;;2.88;1.77;;;;;;;;;;5002840;28;20031;-80
2023/04/20 07:11:52;;;;;;;3.92;1.40;;;;;;;;;;5000405;28;20030;-80
2023/04/20 07:14:19;;;;;;;2.13;1.15;;;;;;;;;;5010677;28;20041;-80
2023/04/20 07:16:45;;;;;;;3.25;1.55;;;;;;;;;;5007143;28;20475;-80
2023/04/20 07:19:11;;;;;;;7.00;2.22;;;;;;;;;;4985929;28;20034;-80
2023/04/20 07:21:37;;;;;;;2.90;1.20;;;;;;;;;;5006040;28;20024;-80
2023/04/20 07:24:03;;;;;;;3.42;1.52;;;;;;;;;;5005509;28;20399;-80
2023/04/20 07:26:30;;;;;;;4.32;1.85;;;;;;;;;;5005756;28;20105;-79
2023/04/20 07:28:56;;;;;;;2.10;1.48;;;;;;;;;;5008055;28;20457;-80
2023/04/20 07:31:22;;;;;;;1.95;1.50;;;;;;;;;;5009544;28;20068;-80
2023/04/20 07:33:47;;;;;;;2.65;1.58;;;;;;;;;;5006919;28;20030;-80
2023/04/20 07:36:13;;;;;;;4.82;1.77;;;;;;;;;;5000994;28;20388;-80
2023/04/20 07:38:40;;;;;;;3.15;1.55;;;;;;;;;;5012825;28;20026;-79
2023/04/20 07:41:09;;;;;;;5.70;1.35;;;;;;;;;;5000614;28;20038;-80
2023/04/20 07:43:35;;;;;;;4.40;1.38;;;;;;;;;;5008528;28;20034;-80
2023/04/20 07:46:01;;;;;;;2.65;1.25;;;;;;;;;;4999492;28;20042;-80
2023/04/20 07:48:28;;;;;;;3.03;1.38;;;;;;;;;;5012149;28;20030;-80
2023/04/20 07:50:55;;;;;;;2.67;1.60;;;;;;;;;;5019126;28;20113;-80
2023/04/20 07:53:21;;;;;;;4.38;1.88;;;;;;;;;;5000531;28;20033;-82
2023/04/20 07:55:47;;;;;;;2.45;1.77;;;;;;;;;;4998808;28;20030;-82
2023/04/20 07:58:15;;;;;;;3.58;1.85;;;;;;;;;;4999859;28;20069;-81
2023/04/20 08:00:41;;;;;;;3.25;1.77;;;;;;;;;;5013348;28;20084;-82
2023/04/20 08:03:07;;;;;;;5.10;1.58;;;;;;;;;;5005094;28;20516;-81
2023/04/20 08:05:33;;;;;;;2.42;2.08;;;;;;;;;;5016322;28;20108;-81
2023/04/20 08:07:59;;;;;;;10.40;4.45;;;;;;;;;;5018482;28;20037;-82
2023/04/20 08:10:25;;;;;;;5.65;3.08;;;;;;;;;;5001541;28;20040;-82
2023/04/20 08:12:52;;;;;;;4.32;2.42;;;;;;;;;;5021940;28;20034;-82
2023/04/20 08:15:18;;;;;;;5.03;2.78;;;;;;;;;;5019732;28;20025;-81
2023/04/20 08:17:44;;;;;;;6.03;2.70;;;;;;;;;;5019028;28;20129;-82
2023/04/20 08:20:10;;;;;;;4.80;2.38;;;;;;;;;;5020041;28;20033;-81
2023/04/20 08:22:36;;;;;;;3.78;1.95;;;;;;;;;;5021370;28;20568;-80
2023/04/20 08:25:02;;;;;;;3.97;2.00;;;;;;;;;;5011982;28;20018;-79
2023/04/20 08:27:29;;;;;;;3.83;1.70;;;;;;;;;;5014066;28;20034;-79
2023/04/20 08:29:55;;;;;;;7.53;2.50;;;;;;;;;;5015117;28;20042;-79
2023/04/20 08:32:22;;;;;;;3.85;2.10;;;;;;;;;;5006410;28;20030;-79
2023/04/20 08:34:50;;;;;;;4.15;2.30;;;;;;;;;;5000436;28;20022;-79
2023/04/20 08:37:17;;;;;;;5.75;2.47;;;;;;;;;;4983726;28;20049;-79
2023/04/20 08:39:43;;;;;;;2.20;1.25;;;;;;;;;;5001313;28;20453;-79
2023/04/20 08:42:09;;;;;;;3.17;1.65;;;;;;;;;;5008060;28;20030;-79
2023/04/20 08:44:35;;;;;;;4.57;1.63;;;;;;;;;;5011905;28;20033;-79
2023/04/20 08:47:01;;;;;;;5.28;2.50;;;;;;;;;;4997162;28;20029;-80
2023/04/20 08:49:31;;;;;;;2.83;1.60;;;;;;;;;;5015336;28;20115;-80
2023/04/20 08:51:57;;;;;;;;;;;;;;;;;;5000945;28;20030;-78
2023/04/20 08:54:23;;;;;;;4.60;2.38;;;;;;;;;;5016994;28;19916;-79
2023/04/20 08:56:50;;;;;;;2.83;2.13;;;;;;;;;;5017705;28;20030;-79
2023/04/20 08:59:26;;;;;;;3.70;1.98;;;;;;;;;;5003751;28;20014;-79
2023/04/20 09:01:55;;;;;;;6.03;2.03;;;;;;;;;;5016606;28;20026;-79
2023/04/20 09:04:22;;;;;;;4.07;1.80;;;;;;;;;;5013314;28;20027;-79
2023/04/20 09:06:49;;;;;;;3.38;1.95;;;;;;;;;;5010481;28;20030;-79
2023/04/20 09:09:19;;;;;;;5.75;2.67;;;;;;;;;;5017442;28;20022;-79
2023/04/20 09:11:45;;;;;;;3.03;2.15;;;;;;;;;;5015217;28;20034;-79
2023/04/20 09:14:13;;;;;;;4.45;2.63;;;;;;;;;;4999397;28;20026;-79
2023/04/20 09:16:49;;;;;;;4.45;2.47;;;;;;;;;;5000422;28;20088;-79
2023/04/20 09:19:26;;;;;;;4.22;2.40;;;;;;;;;;5006030;28;20013;-79
2023/04/20 09:21:53;;;;;;;4.32;2.20;;;;;;;;;;5003298;28;20097;-79
2023/04/20 09:24:23;;;;;;;4.40;1.73;;;;;;;;;;5005934;28;20097;-79
2023/04/20 09:26:49;;;;;;;3.30;2.22;;;;;;;;;;4994627;28;20053;-79
2023/04/20 09:29:16;;;;;;;6.47;2.58;;;;;;;;;;5004825;28;20659;-79
2023/04/20 09:31:42;;;;;;;3.28;2.10;;;;;;;;;;4989847;28;20046;-79
2023/04/20 09:34:15;;;;;;;4.72;2.08;;;;;;;;;;4985865;28;20030;-79
2023/04/20 09:36:42;;;;;;;7.53;2.50;;;;;;;;;;4991804;28;20039;-79
2023/04/20 09:39:10;;;;;;;3.90;2.17;;;;;;;;;;4988919;28;20726;-79
2023/04/20 09:41:36;;;;;;;3.10;2.03;;;;;;;;;;4981377;28;20034;-79
2023/04/20 09:44:03;;;;;;;3.78;1.83;;;;;;;;;;4985411;28;20014;-79
2023/04/20 09:46:33;;;;;;;3.58;2.55;;;;;;;;;;4989679;28;20033;-79
2023/04/20 09:49:00;;;;;;;3.85;2.67;;;;;;;;;;4982304;28;20023;-81
2023/04/20 09:51:27;;;;;;;3.90;2.60;;;;;;;;;;4985879;28;20507;-81
2023/04/20 09:53:54;;;;;;;4.18;2.17;;;;;;;;;;4983312;28;20120;-81
2023/04/20 09:56:21;;;;;;;4.18;1.80;;;;;;;;;;4984651;28;20030;-82
2023/04/20 09:58:47;;;;;;;5.07;2.40;;;;;;;;;;4982305;28;20030;-82
2023/04/20 10:01:18;;;;;;;8.45;2.50;;;;;;;;;;4982581;28;20019;-81
2023/04/20 10:03:44;;;;;;;3.03;2.10;;;;;;;;;;4986095;28;20039;-80
2023/04/20 10:06:19;;;;;;;3.97;2.42;;;;;;;;;;4990828;28;20109;-81
2023/04/20 10:08:46;;;;;;;5.57;2.47;;;;;;;;;;4985823;28;20042;-81
2023/04/20 10:11:23;;;;;;;4.07;2.60;;;;;;;;;;4984940;28;20388;-81
2023/04/20 10:13:54;;;;;;;4.15;2.45;;;;;;;;;;4987405;28;20050;-81
2023/04/20 10:16:20;;;;;;;4.80;2.72;;;;;;;;;;4985288;28;20026;-81
2023/04/20 10:19:03;;;;;;;5.38;2.10;;;;;;;;;;4985494;28;20029;-81
2023/04/20 10:21:31;;;;;;;4.28;3.10;;;;;;;;;;4988977;28;20193;-81
2023/04/20 10:23:59;;;;;;;4.55;2.85;;;;;;;;;;4989589;28;20042;-81
2023/04/20 10:26:35;;;;;;;5.15;2.90;;;;;;;;;;4986602;28;20027;-81
2023/04/20 10:29:01;;;;;;;7.55;2.95;;;;;;;;;;4983924;28;20073;-81
2023/04/20 10:31:44;;;;;;;4.18;2.78;;;;;;;;;;5000391;28;20054;-81
2023/04/20 10:34:18;;;;;;;5.05;2.78;;;;;;;;;;5002535;28;20018;-81
2023/04/20 10:36:44;;;;;;;8.80;2.83;;;;;;;;;;4988633;28;20069;-81
2023/04/20 10:39:14;;;;;;;4.25;3.08;;;;;;;;;;5000995;28;20033;-81
2023/04/20 10:41:53;;;;;;;6.32;3.20;;;;;;;;;;5003408;28;20108;-81
2023/04/20 10:44:33;;;;;;;4.53;2.60;;;;;;;;;;5002098;28;20383;-81
2023/04/20 10:46:59;;;;;;;8.23;3.70;;;;;;;;;;5007423;28;20021;-81
2023/04/20 10:49:26;;;;;;;6.57;2.75;;;;;;;;;;5005673;28;20255;-81
2023/04/20 10:51:52;;;;;;;2.85;1.95;;;;;;;;;;5003574;28;20116;-82
2023/04/20 10:54:19;;;;;;;6.35;2.80;;;;;;;;;;4992557;28;20484;-81
2023/04/20 10:56:46;;;;;;;5.95;2.88;;;;;;;;;;4974657;28;20022;-82
2023/04/20 10:59:19;;;;;;;5.80;3.42;;;;;;;;;;5000003;28;20465;-81
2023/04/20 11:01:45;;;;;;;5.45;3.10;;;;;;;;;;4993048;28;20027;-81
2023/04/20 11:04:12;;;;;;;3.70;2.88;;;;;;;;;;4994568;28;20087;-81
2023/04/20 11:06:43;;;;;;;5.07;3.03;;;;;;;;;;4992842;28;20362;-81
2023/04/20 11:09:17;;;;;;;6.00;3.55;;;;;;;;;;4993292;28;20086;-81
2023/04/20 11:11:44;;;;;;;6.28;3.58;;;;;;;;;;5004348;28;20022;-81
2023/04/20 11:14:10;;;;;;;3.20;2.53;;;;;;;;;;5001697;28;20102;-81
2023/04/20 11:16:36;;;;;;;8.23;4.10;;;;;;;;;;4995077;28;20030;-81
2023/04/20 11:19:03;;;;;;;3.60;3.08;;;;;;;;;;4995581;28;20026;-81
2023/04/20 11:21:39;;;;;;;4.72;2.70;;;;;;;;;;4974754;28;20019;-81
2023/04/20 11:24:17;;;;;;;4.95;3.53;;;;;;;;;;4981132;28;20019;-81
2023/04/20 11:26:43;;;;;;;5.55;3.80;;;;;;;;;;4997729;28;20105;-81
2023/04/20 11:29:10;;;;;;;4.65;3.10;;;;;;;;;;4983193;28;20074;-81
2023/04/20 11:31:36;;;;;;;4.13;3.03;;;;;;;;;;4999715;28;20046;-81
2023/04/20 11:34:03;;;;;;;4.07;2.78;;;;;;;;;;4992632;28;20062;-81
2023/04/20 11:36:29;;;;;;;5.00;3.00;;;;;;;;;;4992438;28;20023;-81
2023/04/20 11:39:06;;;;;;;4.80;3.53;;;;;;;;;;4983670;28;20029;-81
2023/04/20 11:41:32;;;;;;;5.10;2.38;;;;;;;;;;4982927;28;20037;-81
2023/04/20 11:43:58;;;;;;;5.65;3.85;;;;;;;;;;4983635;28;20030;-81
2023/04/20 11:46:24;;;;;;;5.03;3.90;;;;;;;;;;4986687;28;20042;-81
2023/04/20 11:48:50;;;;;;;5.47;3.50;;;;;;;;;;4995365;28;20447;-81
2023/04/20 11:51:16;;;;;;;4.65;3.33;;;;;;;;;;4992619;28;20042;-81
2023/04/20 11:53:42;;;;;;;3.20;2.50;;;;;;;;;;4998537;28;20085;-81
2023/04/20 11:56:08;;;;;;;6.60;3.50;;;;;;;;;;5007546;28;20084;-81
2023/04/20 11:58:35;;;;;;;4.32;3.03;;;;;;;;;;5000515;28;20042;-81
2023/04/20 12:01:01;;;;;;;4.95;2.45;;;;;;;;;;5009223;28;20015;-81
2023/04/20 12:03:27;;;;;;;5.00;3.35;;;;;;;;;;5014002;28;20106;-82
2023/04/20 12:05:53;;;;;;;4.50;3.28;;;;;;;;;;5007114;28;20041;-81
2023/04/20 12:08:19;;;;;;;14.10;4.05;;;;;;;;;;5000579;28;20027;-81
2023/04/20 12:10:46;;;;;;;7.45;4.68;;;;;;;;;;4995800;28;20040;-82
2023/04/20 12:13:12;;;;;;;6.88;3.95;;;;;;;;;;5021473;28;20026;-81
2023/04/20 12:15:38;;;;;;;9.30;4.63;;;;;;;;;;5020610;28;20034;-82
2023/04/20 12:18:04;;;;;;;5.68;3.55;;;;;;;;;;5020816;28;20374;-81
2023/04/20 12:20:30;;;;;;;6.75;4.00;;;;;;;;;;5013430;28;20117;-81
2023/04/20 12:22:56;;;;;;;5.10;3.22;;;;;;;;;;5011549;28;20033;-82
2023/04/20 12:25:22;;;;;;;5.18;4.03;;;;;;;;;;5003413;28;20061;-81
2023/04/20 12:27:51;;;;;;;7.63;4.10;;;;;;;;;;5020204;28;20072;-84
2023/04/20 12:30:17;;;;;;;4.95;2.70;;;;;;;;;;5013761;28;20042;-81
2023/04/20 12:32:43;;;;;;;5.95;3.45;;;;;;;;;;5005845;28;20058;-81
2023/04/20 12:35:09;;;;;;;5.07;3.58;;;;;;;;;;5009300;28;20038;-81
2023/04/20 12:37:35;;;;;;;5.85;3.25;;;;;;;;;;5004347;28;20027;-81
2023/04/20 12:40:03;;;;;;;5.13;3.63;;;;;;;;;;5006379;28;20030;-81
2023/04/20 12:42:29;;;;;;;4.80;3.50;;;;;;;;;;5015297;28;20065;-81
2023/04/20 12:44:55;;;;;;;5.32;3.45;;;;;;;;;;4994624;28;20088;-81
2023/04/20 12:47:21;;;;;;;4.22;2.72;;;;;;;;;;5012483;28;20021;-81
2023/04/20 12:49:47;;;;;;;7.75;4.78;;;;;;;;;;5009585;28;20034;-81
2023/04/20 12:52:13;;;;;;;6.38;3.63;;;;;;;;;;5001845;28;20065;-81
2023/04/20 12:54:39;;;;;;;9.32;3.67;;;;;;;;;;5005925;28;20026;-81
2023/04/20 12:57:05;;;;;;;8.30;4.57;;;;;;;;;;5021104;28;20484;-81
2023/04/20 12:59:31;;;;;;;8.52;4.45;;;;;;;;;;5003501;28;20022;-81
2023/04/20 13:01:57;;;;;;;8.70;4.32;;;;;;;;;;5000779;28;20113;-81
2023/04/20 13:04:23;;;;;;;4.88;3.92;;;;;;;;;;5020256;28;20086;-81
2023/04/20 13:06:49;;;;;;;6.25;3.80;;;;;;;;;;5004259;28;20030;-81
2023/04/20 13:09:15;;;;;;;6.68;4.05;;;;;;;;;;5004986;28;20141;-81
2023/04/20 13:11:41;;;;;;;7.20;4.78;;;;;;;;;;5002767;28;20037;-81
2023/04/20 13:14:07;;;;;;;5.47;4.13;;;;;;;;;;5022098;28;20030;-82
2023/04/20 13:16:33;;;;;;;6.35;4.57;;;;;;;;;;5018918;28;20037;-82
2023/04/20 13:19:02;;;;;;;6.40;3.88;;;;;;;;;;5016271;28;20080;-82
2023/04/20 13:21:28;;;;;;;6.40;4.37;;;;;;;;;;5011883;28;20029;-82
2023/04/20 13:23:54;;;;;;;5.93;4.70;;;;;;;;;;5022720;28;20037;-81
2023/04/20 13:26:20;;;;;;;6.30;5.13;;;;;;;;;;5004310;28;20030;-82
2023/04/20 13:28:46;;;;;;;7.90;4.45;;;;;;;;;;5023969;28;20070;-82
2023/04/20 13:31:13;;;;;;;5.63;4.28;;;;;;;;;;5021001;28;20049;-82
2023/04/20 13:33:39;;;;;;;7.22;4.63;;;;;;;;;;5020341;28;20472;-82
2023/04/20 13:36:05;;;;;;;9.18;5.60;;;;;;;;;;5004672;28;20062;-82
2023/04/20 13:38:31;;;;;;;6.97;4.88;;;;;;;;;;5006730;28;20026;-82
2023/04/20 13:40:57;;;;;;;8.18;4.85;;;;;;;;;;5008138;28;20034;-81
2023/04/20 13:43:23;;;;;;;8.48;4.95;;;;;;;;;;5013439;28;20036;-82
2023/04/20 13:45:49;;;;;;;5.43;4.50;;;;;;;;;;5002670;28;20538;-82
2023/04/20 13:48:15;;;;;;;7.55;4.68;;;;;;;;;;4992884;28;20034;-82
2023/04/20 13:50:41;;;;;;;8.50;5.65;;;;;;;;;;5000467;28;20026;-81
2023/04/20 13:53:07;;;;;;;8.65;5.80;;;;;;;;;;5000834;28;20023;-81
2023/04/20 13:55:33;;;;;;;7.15;4.80;;;;;;;;;;5001417;28;20026;-82
2023/04/20 13:58:00;;;;;;;8.48;5.22;;;;;;;;;;5014175;28;20131;-82
2023/04/20 14:00:26;;;;;;;6.38;4.25;;;;;;;;;;5011536;28;20030;-82
2023/04/20 14:02:52;;;;;;;8.02;5.25;;;;;;;;;;5015469;28;20064;-81
2023/04/20 14:05:18;;;;;;;7.55;5.45;;;;;;;;;;5003972;28;20030;-81
2023/04/20 14:07:44;;;;;;;9.85;5.75;;;;;;;;;;5002179;28;20050;-81
2023/04/20 14:10:10;;;;;;;8.80;6.47;;;;;;;;;;4988877;28;20022;-82
2023/04/20 14:12:36;;;;;;;7.03;6.18;;;;;;;;;;5004558;28;20475;-82
2023/04/20 14:15:04;;;;;;;8.93;6.38;;;;;;;;;;5001914;28;20022;-82
2023/04/20 14:17:30;;;;;;;9.23;5.95;;;;;;;;;;4999775;28;20503;-82
2023/04/20 14:19:56;;;;;;;7.32;4.35;;;;;;;;;;4998724;28;20122;-82
2023/04/20 14:22:22;;;;;;;8.95;6.25;;;;;;;;;;5019162;28;20060;-82
2023/04/20 14:24:48;;;;;;;7.22;4.30;;;;;;;;;;5008349;28;20018;-82
2023/04/20 14:27:14;;;;;;;9.07;5.88;;;;;;;;;;4981682;28;20070;-81
2023/04/20 14:29:40;;;;;;;8.40;5.80;;;;;;;;;;4999173;28;20669;-83
2023/04/20 14:32:06;;;;;;;7.50;5.35;;;;;;;;;;5000125;28;20051;-82
2023/04/20 14:34:32;;;;;;;7.22;4.88;;;;;;;;;;5013338;28;20049;-82
2023/04/20 14:36:58;;;;;;;7.30;4.85;;;;;;;;;;5000436;28;20022;-82
2023/04/20 14:39:24;;;;;;;6.80;5.28;;;;;;;;;;5003645;28;20041;-81
2023/04/20 14:41:50;;;;;;;7.85;5.90;;;;;;;;;;5002878;28;20065;-80
2023/04/20 14:44:16;;;;;;;6.53;4.43;;;;;;;;;;4984402;28;20034;-81